createdAt,value
2023-01-19T00:01:01.015Z,102958.09
2023-01-19T00:03:28.586Z,102964.16
2023-01-19T00:05:56.166Z,102963.25
2023-01-19T00:08:23.645Z,102969.16
2023-01-19T00:13:37.422Z,102965.63
2023-01-19T00:16:05.275Z,102974.25
2023-01-19T00:18:32.889Z,102975.84
2023-01-19T00:21:00.308Z,102978.38
2023-01-19T00:23:27.785Z,102992.72
2023-01-19T00:25:55.609Z,103000.34
2023-01-19T00:28:23.107Z,103006.25
2023-01-19T00:30:51.359Z,102994.47
2023-01-19T00:33:18.815Z,102985.09
2023-01-19T00:35:51.992Z,102986.00
2023-01-19T00:38:20.021Z,102991.13
2023-01-19T00:40:48.360Z,103000.44
2023-01-19T00:43:15.933Z,102984.16
2023-01-19T00:45:43.536Z,102975.63
2023-01-19T00:48:11.112Z,102978.38
2023-01-19T00:50:45.955Z,102990.38
2023-01-19T00:53:13.457Z,102987.00
2023-01-19T00:55:41.008Z,102991.16
2023-01-19T00:58:08.457Z,102984.25
2023-01-19T01:00:35.957Z,102984.28
2023-01-19T01:03:04.131Z,102979.16
2023-01-19T01:05:31.991Z,102980.88
2023-01-19T01:07:59.491Z,102985.13
2023-01-19T01:10:29.753Z,102985.94
2023-01-19T01:12:59.239Z,102987.72
2023-01-19T01:15:28.305Z,102994.56
2023-01-19T01:17:55.958Z,102989.38
2023-01-19T01:20:30.420Z,102996.03
2023-01-19T01:22:58.906Z,102991.13
2023-01-19T01:25:28.620Z,102997.25
2023-01-19T01:27:56.156Z,102986.09
2023-01-19T01:30:24.212Z,102998.19
2023-01-19T01:32:51.638Z,103005.75
2023-01-19T01:35:19.108Z,103021.91
2023-01-19T01:37:46.663Z,103022.53
2023-01-19T01:40:17.409Z,103032.75
2023-01-19T01:42:45.743Z,103017.81
2023-01-19T01:45:23.879Z,103015.31
2023-01-19T01:47:53.182Z,103024.69
2023-01-19T01:50:25.539Z,103032.44
2023-01-19T01:53:06.630Z,103025.66
2023-01-19T01:55:43.590Z,103018.69
2023-01-19T01:58:12.863Z,103011.78
2023-01-19T02:00:59.299Z,103018.66
2023-01-19T02:03:28.766Z,103011.75
2023-01-19T02:06:00.110Z,103020.38
2023-01-19T02:09:05.654Z,103026.19
2023-01-19T02:11:52.436Z,103029.91
2023-01-19T02:14:20.170Z,103030.78
2023-01-19T02:16:47.854Z,103019.59
2023-01-19T02:19:35.551Z,103017.91
2023-01-19T02:22:13.228Z,103029.94
2023-01-19T02:24:41.493Z,103014.50
2023-01-19T02:27:10.063Z,103017.09
2023-01-19T02:29:37.779Z,103019.72
2023-01-19T02:32:06.055Z,103020.56
2023-01-19T02:34:33.687Z,103017.19
2023-01-19T02:37:20.972Z,103014.59
2023-01-19T02:39:55.962Z,103018.88
2023-01-19T02:42:32.641Z,103014.59
2023-01-19T02:45:00.231Z,103020.59
2023-01-19T02:47:27.605Z,103012.88
2023-01-19T02:49:59.361Z,103025.69
2023-01-19T02:52:28.312Z,103037.66
2023-01-19T02:55:18.536Z,103032.56
2023-01-19T02:58:07.544Z,103041.94
2023-01-19T03:00:45.315Z,103044.50
2023-01-19T03:03:12.737Z,103049.63
2023-01-19T03:06:15.965Z,103035.97
2023-01-19T03:08:57.693Z,103038.53
2023-01-19T03:11:32.383Z,103024.00
2023-01-19T03:14:09.217Z,103019.72
2023-01-19T03:16:45.846Z,103020.59
2023-01-19T03:19:20.422Z,103022.28
2023-01-19T03:21:52.706Z,103026.56
2023-01-19T03:24:23.928Z,103021.41
2023-01-19T03:27:12.651Z,103029.09
2023-01-19T03:29:42.458Z,103019.75
2023-01-19T03:32:14.823Z,103022.31
2023-01-19T03:34:44.475Z,103025.72
2023-01-19T03:37:14.487Z,103035.09
2023-01-19T03:39:42.436Z,103039.41
2023-01-19T03:42:14.801Z,103029.09
2023-01-19T03:44:44.922Z,103022.28
2023-01-19T03:47:14.984Z,103028.28
2023-01-19T03:49:45.550Z,103034.22
2023-01-19T03:52:13.150Z,103040.25
2023-01-19T03:54:41.279Z,103029.16
2023-01-19T03:57:08.758Z,103035.09
2023-01-19T03:59:36.842Z,103022.22
2023-01-19T04:02:04.308Z,103022.31
2023-01-19T04:04:31.930Z,103030.84
2023-01-19T04:09:41.650Z,103035.97
2023-01-19T04:12:09.585Z,103029.13
2023-01-19T04:14:38.575Z,103034.25
2023-01-19T04:17:06.254Z,103036.81
2023-01-19T04:19:33.683Z,103031.69
2023-01-19T04:24:46.133Z,103040.22
2023-01-19T04:27:15.477Z,103024.81
2023-01-19T04:29:48.899Z,103028.28
2023-01-19T04:32:17.639Z,103042.81
2023-01-19T04:34:45.043Z,103034.22
2023-01-19T04:37:12.751Z,103030.84
2023-01-19T04:39:40.195Z,103035.13
2023-01-19T04:42:08.200Z,103028.28
2023-01-19T04:44:35.741Z,103035.06
2023-01-19T04:47:03.653Z,103044.50
2023-01-19T04:49:31.176Z,103042.81
2023-01-19T04:51:58.560Z,103038.53
2023-01-19T04:54:27.296Z,103042.72
2023-01-19T04:56:55.337Z,103041.09
2023-01-19T04:59:24.931Z,103043.56
2023-01-19T05:01:52.947Z,103045.28
2023-01-19T05:04:22.741Z,103063.25
2023-01-19T05:06:52.063Z,103062.41
2023-01-19T05:09:22.136Z,103061.56
2023-01-19T05:11:49.666Z,103059.00
2023-01-19T05:14:17.542Z,103065.81
2023-01-19T05:16:46.517Z,103073.56
2023-01-19T05:19:14.903Z,103078.72
2023-01-19T05:21:42.925Z,103082.97
2023-01-19T05:24:10.724Z,103077.00
2023-01-19T05:26:38.981Z,103083.81
2023-01-19T05:29:07.005Z,103087.19
2023-01-19T05:31:35.913Z,103091.41
2023-01-19T05:34:04.886Z,103088.94
2023-01-19T05:36:32.718Z,103092.31
2023-01-19T05:39:00.356Z,103100.78
2023-01-19T05:41:28.685Z,103107.69
2023-01-19T05:43:56.769Z,103112.81
2023-01-19T05:46:27.297Z,103117.97
2023-01-19T05:48:55.985Z,103120.56
2023-01-19T05:51:25.045Z,103116.28
2023-01-19T05:53:55.391Z,103124.00
2023-01-19T05:56:24.207Z,103132.56
2023-01-19T05:58:53.325Z,103135.97
2023-01-19T06:01:21.837Z,103130.81
2023-01-19T06:03:51.083Z,103129.16
2023-01-19T06:06:19.142Z,103139.38
2023-01-19T06:08:48.427Z,103136.81
2023-01-19T06:11:16.537Z,103145.38
2023-01-19T06:13:44.767Z,103171.03
2023-01-19T06:16:13.013Z,103161.56
2023-01-19T06:18:45.371Z,103162.38
2023-01-19T06:21:16.267Z,103150.25
2023-01-19T06:26:32.249Z,103150.47
2023-01-19T06:29:00.094Z,103155.56
2023-01-19T06:31:30.407Z,103154.56
2023-01-19T06:33:58.150Z,103156.97
2023-01-19T06:36:27.941Z,103147.50
2023-01-19T06:38:58.410Z,103163.78
2023-01-19T06:42:21.189Z,103162.25
2023-01-19T06:45:07.741Z,103156.91
2023-01-19T06:47:38.053Z,103155.88
2023-01-19T06:50:09.503Z,103164.41
2023-01-19T06:52:42.844Z,103164.31
2023-01-19T06:55:13.653Z,103160.66
2023-01-19T06:57:42.543Z,103163.31
2023-01-19T07:00:14.874Z,103161.84
2023-01-19T07:02:43.964Z,103160.06
2023-01-19T07:08:13.597Z,103177.97
2023-01-19T07:11:26.519Z,103176.13
2023-01-19T07:13:29.804Z,103151.75
2023-01-19T07:16:01.665Z,103160.75
2023-01-19T07:18:29.861Z,103159.03
2023-01-19T07:20:58.934Z,103159.09
2023-01-19T07:23:31.233Z,103166.47
2023-01-19T07:26:04.217Z,103161.72
2023-01-19T07:28:38.512Z,103155.38
2023-01-19T07:31:10.401Z,103155.66
2023-01-19T07:33:47.555Z,103137.75
2023-01-19T07:36:42.661Z,103148.97
2023-01-19T07:42:17.825Z,103132.09
2023-01-19T07:44:51.657Z,103130.91
2023-01-19T07:47:20.065Z,103154.63
2023-01-19T07:49:48.141Z,103140.03
2023-01-19T07:52:15.665Z,103139.84
2023-01-19T07:54:43.626Z,103146.78
2023-01-19T07:57:12.418Z,103156.28
2023-01-19T07:59:40.159Z,103145.47
2023-01-19T08:02:10.915Z,103142.88
2023-01-19T08:04:39.605Z,103147.78
2023-01-19T08:07:07.711Z,103156.00
2023-01-19T08:09:35.568Z,103153.31
2023-01-19T08:12:05.364Z,103147.22
2023-01-19T08:14:35.587Z,103143.59
2023-01-19T08:17:06.584Z,103150.25
2023-01-19T08:19:34.766Z,103153.22
2023-01-19T08:22:04.379Z,103149.03
2023-01-19T08:27:20.960Z,103143.09
2023-01-19T08:29:50.155Z,103136.06
2023-01-19T08:32:18.447Z,103131.31
2023-01-19T08:34:57.887Z,103124.94
2023-01-19T08:37:45.352Z,103122.50
2023-01-19T08:40:13.719Z,103118.63
2023-01-19T08:42:41.309Z,103106.81
2023-01-19T08:45:09.724Z,103113.97
2023-01-19T08:47:37.751Z,103117.88
2023-01-19T08:50:06.753Z,103122.56
2023-01-19T08:52:34.637Z,103114.78
2023-01-19T08:55:02.307Z,103121.47
2023-01-19T08:57:31.657Z,103119.78
2023-01-19T09:00:01.560Z,103107.81
2023-01-19T09:02:30.774Z,103112.09
2023-01-19T09:04:58.568Z,103111.06
2023-01-19T09:07:27.476Z,103113.88
2023-01-19T09:09:56.940Z,103108.34
2023-01-19T09:12:25.044Z,103104.78
2023-01-19T09:14:53.364Z,103097.88
2023-01-19T09:21:22.776Z,103096.38
2023-01-19T09:23:51.376Z,103078.22
2023-01-19T09:26:21.420Z,103095.28
2023-01-19T09:28:50.991Z,103105.28
2023-01-19T09:31:19.695Z,103110.13
2023-01-19T09:33:47.616Z,103108.63
2023-01-19T09:36:15.591Z,103110.84
2023-01-19T09:38:44.187Z,103109.31
2023-01-19T09:41:21.741Z,103108.09
2023-01-19T09:43:59.964Z,103100.19
2023-01-19T09:46:37.361Z,103099.84
2023-01-19T09:49:15.041Z,103113.38
2023-01-19T09:51:48.461Z,103107.34
2023-01-19T09:54:24.475Z,103097.69
2023-01-19T09:56:54.172Z,103111.56
2023-01-19T09:59:33.079Z,103097.31
2023-01-19T10:02:23.898Z,103111.66
2023-01-19T10:05:05.967Z,103100.88
2023-01-19T10:07:33.598Z,103103.03
2023-01-19T10:10:18.610Z,103116.72
2023-01-19T10:13:32.399Z,103105.06
2023-01-19T10:16:34.280Z,103106.84
2023-01-19T10:19:26.313Z,103112.41
2023-01-19T10:21:58.270Z,103111.91
2023-01-19T10:24:37.763Z,103129.22
2023-01-19T10:27:21.526Z,103136.91
2023-01-19T10:29:50.493Z,103131.34
2023-01-19T10:32:21.488Z,103134.91
2023-01-19T10:34:50.559Z,103133.75
2023-01-19T10:37:18.154Z,103136.84
2023-01-19T10:39:54.903Z,103129.19
2023-01-19T10:42:22.526Z,103133.47
2023-01-19T10:44:50.588Z,103133.31
2023-01-19T10:47:21.961Z,103123.84
2023-01-19T10:49:50.482Z,103128.34
2023-01-19T10:52:31.010Z,103134.91
2023-01-19T10:55:02.218Z,103120.97
2023-01-19T10:57:38.127Z,103122.69
2023-01-19T11:00:08.346Z,103126.28
2023-01-19T11:02:36.358Z,103112.84
2023-01-19T11:05:27.734Z,103120.38
2023-01-19T11:07:56.684Z,103116.78
2023-01-19T11:10:27.192Z,103114.72
2023-01-19T11:13:01.685Z,103108.25
2023-01-19T11:15:36.269Z,103108.03
2023-01-19T11:18:07.144Z,103106.31
2023-01-19T11:21:07.993Z,103110.38
2023-01-19T11:23:51.580Z,103108.28
2023-01-19T11:26:35.257Z,103104.50
2023-01-19T11:29:05.650Z,103109.34
2023-01-19T11:31:36.123Z,103105.44
2023-01-19T11:34:25.243Z,103101.25
2023-01-19T11:36:59.462Z,103094.31
2023-01-19T11:39:29.644Z,103101.53
2023-01-19T11:47:45.566Z,103095.19
2023-01-19T11:50:28.406Z,103096.84
2023-01-19T11:53:01.448Z,103099.06
2023-01-19T11:55:49.184Z,103097.84
2023-01-19T11:58:19.997Z,103095.34
2023-01-19T12:01:16.230Z,103091.31
2023-01-19T12:03:49.513Z,103088.28
2023-01-19T12:06:24.966Z,103100.34
2023-01-19T12:09:03.570Z,103099.06
2023-01-19T12:11:43.775Z,103101.84
2023-01-19T12:14:28.572Z,103103.44
2023-01-19T12:17:00.184Z,103106.09
2023-01-19T12:19:42.147Z,103108.31
2023-01-19T12:22:16.198Z,103114.34
2023-01-19T12:25:02.459Z,103126.09
2023-01-19T12:27:44.904Z,103118.88
2023-01-19T12:30:28.570Z,103119.75
2023-01-19T12:33:27.661Z,103123.41
2023-01-19T12:36:38.055Z,103124.31
2023-01-19T12:39:08.915Z,103120.13
2023-01-19T12:41:38.447Z,103129.91
2023-01-19T12:44:16.604Z,103128.38
2023-01-19T12:46:49.187Z,103131.41
2023-01-19T12:49:45.241Z,103124.59
2023-01-19T12:52:26.106Z,103114.84
2023-01-19T12:54:57.934Z,103113.41
2023-01-19T12:57:39.909Z,103127.38
2023-01-19T13:00:08.148Z,103122.84
2023-01-19T13:02:47.366Z,103114.06
2023-01-19T13:05:33.705Z,103109.28
2023-01-19T13:08:07.233Z,103117.59
2023-01-19T13:11:00.723Z,103110.81
2023-01-19T13:13:31.795Z,103107.00
2023-01-19T13:16:21.705Z,103107.72
2023-01-19T13:19:06.840Z,103105.56
2023-01-19T13:21:34.560Z,103099.50
2023-01-19T13:24:05.252Z,103108.34
2023-01-19T13:26:39.829Z,103104.81
2023-01-19T13:29:10.390Z,103106.28
2023-01-19T13:31:41.105Z,103108.34
2023-01-19T13:34:22.282Z,103109.81
2023-01-19T13:37:00.825Z,103124.59
2023-01-19T13:39:38.632Z,103136.25
2023-01-19T13:42:13.915Z,103135.03
2023-01-19T13:44:43.959Z,103124.88
2023-01-19T13:47:21.600Z,103128.50
2023-01-19T13:49:56.233Z,103136.66
2023-01-19T13:52:27.259Z,103137.59
2023-01-19T13:55:00.542Z,103133.22
2023-01-19T13:57:51.919Z,103132.25
2023-01-19T14:00:26.882Z,103133.88
2023-01-19T14:02:59.602Z,103140.72
2023-01-19T14:05:40.476Z,103138.94
2023-01-19T14:08:11.579Z,103144.31
2023-01-19T14:11:01.477Z,103148.00
2023-01-19T14:13:40.481Z,103142.41
2023-01-19T14:16:17.245Z,103152.72
2023-01-19T14:18:44.749Z,103157.06
2023-01-19T14:21:14.406Z,103159.41
2023-01-19T14:23:47.962Z,103164.84
2023-01-19T14:26:51.638Z,103162.34
2023-01-19T14:29:29.555Z,103167.44
2023-01-19T14:32:22.949Z,103167.84
2023-01-19T14:35:13.918Z,103163.81
2023-01-19T14:37:51.262Z,103165.34
2023-01-19T14:40:22.211Z,103169.28
2023-01-19T14:43:08.648Z,103171.75
2023-01-19T14:45:40.752Z,103167.97
2023-01-19T14:48:20.796Z,103166.44
2023-01-19T14:51:02.730Z,103174.00
2023-01-19T14:53:39.176Z,103165.28
2023-01-19T14:56:07.701Z,103174.44
2023-01-19T14:58:35.929Z,103168.72
2023-01-19T15:01:04.443Z,103179.81
2023-01-19T15:03:44.040Z,103174.16
2023-01-19T15:06:17.739Z,103171.69
2023-01-19T15:08:46.165Z,103176.19
2023-01-19T15:11:21.452Z,103175.09
2023-01-19T15:13:49.754Z,103183.66
2023-01-19T15:16:17.524Z,103178.50
2023-01-19T15:18:45.182Z,103178.41
2023-01-19T15:21:19.834Z,103177.16
2023-01-19T15:23:47.811Z,103185.13
2023-01-19T15:26:21.248Z,103183.66
2023-01-19T15:28:49.903Z,103192.97
2023-01-19T15:31:19.875Z,103184.91
2023-01-19T15:33:47.454Z,103192.50
2023-01-19T15:36:18.057Z,103191.03
2023-01-19T15:38:46.909Z,103193.69
2023-01-19T15:41:24.104Z,103199.84
2023-01-19T15:43:52.200Z,103205.19
2023-01-19T15:46:23.855Z,103203.38
2023-01-19T15:48:52.401Z,103202.66
2023-01-19T15:51:22.615Z,103213.13
2023-01-19T15:53:50.689Z,103209.16
2023-01-19T15:56:24.884Z,103216.72
2023-01-19T15:58:53.985Z,103209.78
2023-01-19T16:01:22.586Z,103218.56
2023-01-19T16:03:51.015Z,103215.22
2023-01-19T16:06:18.952Z,103216.38
2023-01-19T16:08:46.845Z,103219.66
2023-01-19T16:11:15.586Z,103226.59
2023-01-19T16:13:47.506Z,103217.47
2023-01-19T16:16:17.600Z,103219.88
2023-01-19T16:18:45.690Z,103225.25
2023-01-19T16:21:13.041Z,103215.75
2023-01-19T16:23:40.977Z,103229.41
2023-01-19T16:26:25.311Z,103220.09
2023-01-19T16:29:00.242Z,103227.75
2023-01-19T16:31:28.729Z,103226.91
2023-01-19T16:33:56.569Z,103223.41
2023-01-19T16:36:30.195Z,103225.38
2023-01-19T16:39:10.735Z,103229.47
2023-01-19T16:41:38.744Z,103234.50
2023-01-19T16:44:07.259Z,103232.78
2023-01-19T16:46:37.196Z,103238.91
2023-01-19T16:49:07.159Z,103240.84
2023-01-19T16:51:34.647Z,103239.06
2023-01-19T16:54:02.075Z,103232.94
2023-01-19T16:56:30.823Z,103248.59
2023-01-19T16:59:00.581Z,103240.69
2023-01-19T17:01:29.659Z,103233.81
2023-01-19T17:03:57.721Z,103245.19
2023-01-19T17:06:25.780Z,103245.38
2023-01-19T17:08:54.342Z,103239.34
2023-01-19T17:11:43.353Z,103243.25
2023-01-19T17:14:14.264Z,103248.78
2023-01-19T17:16:48.947Z,103238.56
2023-01-19T17:19:22.398Z,103241.94
2023-01-19T17:21:50.227Z,103245.31
2023-01-19T17:24:18.044Z,103241.25
2023-01-19T17:26:49.040Z,103240.56
2023-01-19T17:29:17.432Z,103238.63
2023-01-19T17:31:47.663Z,103231.91
2023-01-19T17:34:15.580Z,103229.25
2023-01-19T17:36:44.359Z,103229.31
2023-01-19T17:39:15.071Z,103228.50
2023-01-19T17:41:42.545Z,103238.00
2023-01-19T17:44:10.799Z,103236.25
2023-01-19T17:46:39.284Z,103230.31
2023-01-19T17:49:07.830Z,103221.75
2023-01-19T17:51:35.489Z,103231.28
2023-01-19T17:54:04.320Z,103232.94
2023-01-19T17:56:36.980Z,103232.00
2023-01-19T17:59:08.267Z,103237.94
2023-01-19T18:01:40.087Z,103238.09
2023-01-19T18:04:08.785Z,103226.03
2023-01-19T18:06:38.047Z,103228.56
2023-01-19T18:09:09.041Z,103238.94
2023-01-19T18:11:36.605Z,103222.66
2023-01-19T18:14:05.671Z,103230.28
2023-01-19T18:16:33.282Z,103231.13
2023-01-19T18:19:00.872Z,103226.97
2023-01-19T18:21:33.413Z,103237.31
2023-01-19T18:24:03.522Z,103228.63
2023-01-19T18:26:34.149Z,103230.31
2023-01-19T18:29:02.382Z,103236.28
2023-01-19T18:31:31.155Z,103243.19
2023-01-19T18:34:00.062Z,103247.50
2023-01-19T18:36:27.839Z,103248.31
2023-01-19T18:38:55.454Z,103253.25
2023-01-19T18:41:22.888Z,103250.78
2023-01-19T18:43:52.264Z,103252.97
2023-01-19T18:46:19.844Z,103257.25
2023-01-19T18:48:47.426Z,103252.31
2023-01-19T18:51:16.297Z,103255.88
2023-01-19T18:53:45.177Z,103253.25
2023-01-19T18:58:59.745Z,103244.81
2023-01-19T19:01:33.139Z,103248.31
2023-01-19T19:04:02.517Z,103244.81
2023-01-19T19:06:30.523Z,103240.75
2023-01-19T19:08:59.508Z,103242.41
2023-01-19T19:11:27.296Z,103246.78
2023-01-19T19:13:58.203Z,103250.88
2023-01-19T19:16:26.099Z,103254.16
2023-01-19T19:18:53.671Z,103230.16
2023-01-19T19:21:22.560Z,103247.22
2023-01-19T19:23:51.328Z,103245.50
2023-01-19T19:26:18.738Z,103242.44
2023-01-19T19:28:47.582Z,103246.63
2023-01-19T19:31:20.704Z,103256.94
2023-01-19T19:33:49.422Z,103252.72
2023-01-19T19:36:17.008Z,103248.66
2023-01-19T19:38:47.877Z,103247.66
2023-01-19T19:41:20.496Z,103250.38
2023-01-19T19:43:48.495Z,103251.22
2023-01-19T19:46:19.355Z,103248.66
2023-01-19T19:48:48.022Z,103256.16
2023-01-19T19:54:04.573Z,103258.22
2023-01-19T19:56:34.376Z,103252.25
2023-01-19T19:59:01.879Z,103259.88
2023-01-19T20:01:33.717Z,103253.84
2023-01-19T20:04:10.189Z,103263.19
2023-01-19T20:06:40.221Z,103253.81
2023-01-19T20:09:10.886Z,103247.69
2023-01-19T20:11:39.392Z,103250.41
2023-01-19T20:14:08.452Z,103250.44
2023-01-19T20:16:47.833Z,103253.00
2023-01-19T20:19:18.080Z,103250.41
2023-01-19T20:21:52.775Z,103250.41
2023-01-19T20:24:20.878Z,103247.88
2023-01-19T20:26:52.432Z,103251.41
2023-01-19T20:29:21.040Z,103256.56
2023-01-19T20:31:53.956Z,103265.13
2023-01-19T20:34:24.051Z,103256.56
2023-01-19T20:37:02.022Z,103254.03
2023-01-19T20:39:34.864Z,103253.16
2023-01-19T20:44:49.986Z,103247.16
2023-01-19T20:47:17.397Z,103253.16
2023-01-19T20:49:44.793Z,103251.44
2023-01-19T20:52:12.244Z,103254.03
2023-01-19T20:54:40.232Z,103257.47
2023-01-19T20:57:07.599Z,103261.72
2023-01-19T20:59:37.177Z,103253.16
2023-01-19T21:02:08.112Z,103257.44
2023-01-19T21:04:35.596Z,103248.84
2023-01-19T21:07:05.255Z,103246.31
2023-01-19T21:09:32.706Z,103248.06
2023-01-19T21:12:00.115Z,103254.03
2023-01-19T21:14:27.871Z,103252.31
2023-01-19T21:16:59.726Z,103254.91
2023-01-19T21:19:27.208Z,103255.75
2023-01-19T21:21:55.520Z,103257.44
2023-01-19T21:24:28.577Z,103266.91
2023-01-19T21:27:15.183Z,103261.72
2023-01-19T21:29:42.535Z,103250.63
2023-01-19T21:32:10.050Z,103254.03
2023-01-19T21:34:37.648Z,103248.91
2023-01-19T21:37:05.011Z,103253.19
2023-01-19T21:39:32.321Z,103244.63
2023-01-19T21:41:59.766Z,103255.75
2023-01-19T21:44:27.314Z,103254.03
2023-01-19T21:46:55.980Z,103248.03
2023-01-19T21:49:23.476Z,103250.56
2023-01-19T21:51:50.994Z,103252.28
2023-01-19T21:54:19.123Z,103256.56
2023-01-19T21:56:46.769Z,103259.09
2023-01-19T21:59:15.555Z,103265.06
2023-01-19T22:01:45.190Z,103265.97
2023-01-19T22:04:12.799Z,103269.38
2023-01-19T22:06:40.361Z,103272.75
2023-01-19T22:09:08.214Z,103261.63
2023-01-19T22:11:35.982Z,103273.63
2023-01-19T22:14:03.506Z,103266.84
2023-01-19T22:16:31.233Z,103264.25
2023-01-19T22:19:02.408Z,103255.72
2023-01-19T22:21:33.346Z,103252.31
2023-01-19T22:24:02.493Z,103259.94
2023-01-19T22:26:31.176Z,103260.84
2023-01-19T22:29:00.351Z,103263.41
2023-01-19T22:31:29.499Z,103265.91
2023-01-19T22:33:57.623Z,103261.72
2023-01-19T22:36:28.001Z,103267.69
2023-01-19T22:39:16.717Z,103270.28
2023-01-19T22:41:46.643Z,103270.28
2023-01-19T22:44:21.241Z,103271.16
2023-01-19T22:46:50.382Z,103278.03
2023-01-19T22:49:18.086Z,103278.84
2023-01-19T22:51:46.244Z,103280.59
2023-01-19T22:54:14.244Z,103283.13
2023-01-19T22:56:42.267Z,103280.59
2023-01-19T22:59:15.127Z,103290.00
2023-01-19T23:01:44.228Z,103301.13
2023-01-19T23:04:16.271Z,103283.16
2023-01-19T23:06:47.104Z,103289.16
2023-01-19T23:09:15.568Z,103292.56
2023-01-19T23:11:45.099Z,103294.25
2023-01-19T23:14:19.741Z,103296.84
2023-01-19T23:16:47.663Z,103295.13
2023-01-19T23:19:17.380Z,103291.72
2023-01-19T23:21:45.495Z,103299.38
2023-01-19T23:24:13.122Z,103303.66
2023-01-19T23:26:40.565Z,103297.69
2023-01-19T23:29:12.009Z,103312.22
2023-01-19T23:31:42.726Z,103296.72
2023-01-19T23:34:12.562Z,103295.06
2023-01-19T23:36:47.234Z,103305.34
2023-01-19T23:39:17.213Z,103311.31
2023-01-19T23:41:44.747Z,103304.44
2023-01-19T23:44:12.183Z,103303.63
2023-01-19T23:46:39.659Z,103294.19
2023-01-19T23:49:07.249Z,103299.38
2023-01-19T23:51:35.237Z,103307.03
2023-01-19T23:54:02.811Z,103305.31
2023-01-19T23:56:33.650Z,103300.13
2023-01-19T23:59:06.399Z,103312.94
